createdAt,value
2022-10-18T00:00:44.559Z,100.00
2022-10-18T00:03:11.056Z,100.00
2022-10-18T00:05:37.599Z,100.00
2022-10-18T00:08:04.154Z,100.00
2022-10-18T00:10:30.793Z,100.00
2022-10-18T00:12:57.284Z,100.00
2022-10-18T00:15:23.752Z,100.00
2022-10-18T00:17:50.302Z,100.00
2022-10-18T00:20:16.861Z,100.00
2022-10-18T00:22:43.468Z,100.00
2022-10-18T00:25:10.305Z,100.00
2022-10-18T00:27:37.334Z,100.00
2022-10-18T00:30:05.173Z,100.00
2022-10-18T00:32:31.934Z,100.00
2022-10-18T00:34:59.215Z,100.00
2022-10-18T00:37:25.886Z,100.00
2022-10-18T00:42:27.450Z,100.00
2022-10-18T00:45:04.751Z,100.00
2022-10-18T00:47:32.090Z,100.00
2022-10-18T00:50:01.601Z,100.00
2022-10-18T00:52:34.394Z,100.00
2022-10-18T00:55:01.301Z,100.00
2022-10-18T00:57:27.964Z,100.00
2022-10-18T00:59:54.609Z,100.00
2022-10-18T01:02:21.718Z,100.00
2022-10-18T01:04:48.866Z,100.00
2022-10-18T01:07:34.113Z,100.00
2022-10-18T01:10:03.932Z,100.00
2022-10-18T01:12:47.818Z,100.00
2022-10-18T01:15:26.397Z,100.00
2022-10-18T01:18:04.816Z,100.00
2022-10-18T01:21:08.776Z,100.00
2022-10-18T01:23:38.140Z,100.00
2022-10-18T01:26:38.732Z,100.00
2022-10-18T01:29:38.344Z,100.00
2022-10-18T01:32:08.524Z,100.00
2022-10-18T01:34:36.556Z,100.00
2022-10-18T01:37:05.258Z,100.00
2022-10-18T01:39:35.169Z,100.00
2022-10-18T01:42:03.396Z,100.00
2022-10-18T01:44:31.908Z,100.00
2022-10-18T01:46:59.060Z,100.00
2022-10-18T01:49:26.827Z,100.00
2022-10-18T01:51:53.663Z,100.00
2022-10-18T01:54:29.504Z,100.00
2022-10-18T01:57:03.445Z,100.00
2022-10-18T02:00:10.750Z,100.00
2022-10-18T02:02:40.502Z,100.00
2022-10-18T02:05:13.096Z,100.00
2022-10-18T02:07:48.975Z,100.00
2022-10-18T02:10:30.065Z,100.00
2022-10-18T02:12:57.306Z,100.00
2022-10-18T02:15:28.709Z,100.00
2022-10-18T02:17:56.022Z,100.00
2022-10-18T02:20:24.998Z,100.00
2022-10-18T02:22:54.454Z,100.00
2022-10-18T02:25:25.417Z,100.00
2022-10-18T02:27:52.043Z,100.00
2022-10-18T02:30:19.486Z,100.00
2022-10-18T02:32:54.322Z,100.00
2022-10-18T02:35:26.112Z,100.00
2022-10-18T02:37:53.219Z,100.00
2022-10-18T02:40:20.030Z,100.00
2022-10-18T02:42:52.267Z,100.00
2022-10-18T02:45:18.838Z,100.00
2022-10-18T02:47:45.388Z,100.00
2022-10-18T02:50:12.072Z,100.00
2022-10-18T02:52:38.647Z,100.00
2022-10-18T02:55:05.965Z,100.00
2022-10-18T02:57:32.857Z,100.00
2022-10-18T02:59:59.752Z,100.00
2022-10-18T03:02:26.296Z,100.00
2022-10-18T03:04:52.866Z,100.00
2022-10-18T03:07:19.330Z,100.00
2022-10-18T03:09:45.795Z,100.00
2022-10-18T03:12:12.237Z,100.00
2022-10-18T03:14:38.792Z,100.00
2022-10-18T03:17:05.406Z,100.00
2022-10-18T03:19:31.931Z,100.00
2022-10-18T03:21:58.406Z,100.00
2022-10-18T03:24:24.888Z,100.00
2022-10-18T03:26:51.454Z,100.00
2022-10-18T03:29:17.977Z,100.00
2022-10-18T03:31:44.504Z,100.00
2022-10-18T03:34:11.000Z,100.00
2022-10-18T03:36:38.776Z,100.00
2022-10-18T03:39:05.278Z,100.00
2022-10-18T03:41:31.732Z,100.00
2022-10-18T03:43:58.203Z,100.00
2022-10-18T03:46:24.679Z,100.00
2022-10-18T03:48:51.160Z,100.00
2022-10-18T03:51:17.658Z,100.00
2022-10-18T03:53:44.143Z,100.00
2022-10-18T03:56:10.729Z,100.00
2022-10-18T03:58:37.273Z,100.00
2022-10-18T04:01:03.813Z,100.00
2022-10-18T04:03:30.335Z,100.00
2022-10-18T04:05:57.152Z,100.00
2022-10-18T04:08:23.659Z,100.00
2022-10-18T04:10:50.211Z,100.00
2022-10-18T04:13:16.684Z,100.00
2022-10-18T04:15:43.435Z,100.00
2022-10-18T04:18:10.072Z,100.00
2022-10-18T04:20:36.602Z,100.00
2022-10-18T04:23:03.082Z,100.00
2022-10-18T04:25:29.705Z,100.00
2022-10-18T04:27:56.314Z,100.00
2022-10-18T04:30:22.819Z,100.00
2022-10-18T04:32:49.318Z,100.00
2022-10-18T04:35:15.832Z,100.00
2022-10-18T04:37:42.450Z,100.00
2022-10-18T04:40:09.524Z,100.00
2022-10-18T04:42:35.980Z,100.00
2022-10-18T04:45:02.700Z,100.00
2022-10-18T04:47:29.368Z,100.00
2022-10-18T04:49:56.010Z,100.00
2022-10-18T04:52:22.468Z,100.00
2022-10-18T04:54:48.926Z,100.00
2022-10-18T04:57:15.466Z,100.00
2022-10-18T04:59:41.956Z,100.00
2022-10-18T05:02:08.601Z,100.00
2022-10-18T05:04:35.211Z,100.00
2022-10-18T05:07:02.799Z,100.00
2022-10-18T05:09:29.298Z,100.00
2022-10-18T05:11:55.757Z,100.00
2022-10-18T05:14:22.280Z,100.00
2022-10-18T05:16:48.823Z,100.00
2022-10-18T05:19:15.367Z,100.00
2022-10-18T05:21:41.992Z,100.00
2022-10-18T05:24:11.558Z,100.00
2022-10-18T05:26:38.070Z,100.00
2022-10-18T05:29:04.738Z,100.00
2022-10-18T05:31:31.359Z,100.00
2022-10-18T05:33:57.873Z,100.00
2022-10-18T05:36:26.085Z,100.00
2022-10-18T05:38:53.607Z,100.00
2022-10-18T05:41:20.214Z,100.00
2022-10-18T05:43:46.785Z,100.00
2022-10-18T05:46:15.485Z,100.00
2022-10-18T05:48:44.307Z,100.00
2022-10-18T05:51:11.561Z,100.00
2022-10-18T05:53:38.433Z,100.00
2022-10-18T05:56:06.212Z,100.00
2022-10-18T05:58:33.556Z,100.00
2022-10-18T06:01:01.355Z,100.00
2022-10-18T06:03:28.505Z,100.00
2022-10-18T06:06:00.282Z,100.00
2022-10-18T06:08:26.865Z,100.00
2022-10-18T06:10:53.495Z,100.00
2022-10-18T06:13:19.951Z,100.00
2022-10-18T06:15:46.413Z,100.00
2022-10-18T06:18:12.997Z,100.00
2022-10-18T06:20:39.498Z,100.00
2022-10-18T06:23:06.581Z,100.00
2022-10-18T06:25:33.039Z,100.00
2022-10-18T06:27:59.518Z,100.00
2022-10-18T06:30:26.132Z,100.00
2022-10-18T06:32:52.762Z,100.00
2022-10-18T06:35:19.193Z,100.00
2022-10-18T06:37:45.679Z,100.00
2022-10-18T06:40:12.393Z,100.00
2022-10-18T06:42:39.174Z,100.00
2022-10-18T06:45:06.490Z,100.00
2022-10-18T06:47:33.007Z,100.00
2022-10-18T06:49:59.889Z,100.00
2022-10-18T06:52:26.545Z,100.00
2022-10-18T06:54:53.811Z,100.00
2022-10-18T06:57:21.292Z,100.00
2022-10-18T06:59:47.785Z,100.00
2022-10-18T07:02:16.595Z,100.00
2022-10-18T07:04:43.706Z,100.00
2022-10-18T07:07:10.163Z,100.00
2022-10-18T07:09:36.682Z,100.00
2022-10-18T07:12:03.367Z,100.00
2022-10-18T07:14:29.835Z,100.00
2022-10-18T07:16:59.500Z,100.00
2022-10-18T07:19:26.281Z,100.00
2022-10-18T07:21:52.769Z,100.00
2022-10-18T07:24:19.264Z,100.00
2022-10-18T07:26:45.762Z,100.00
2022-10-18T07:29:13.176Z,100.00
2022-10-18T07:31:40.859Z,100.00
2022-10-18T07:34:09.139Z,100.00
2022-10-18T07:36:35.675Z,100.00
2022-10-18T07:39:02.309Z,100.00
2022-10-18T07:41:29.234Z,100.00
2022-10-18T07:43:55.858Z,100.00
2022-10-18T07:46:22.598Z,100.00
2022-10-18T07:48:50.044Z,100.00
2022-10-18T07:51:17.864Z,100.00
2022-10-18T07:53:44.489Z,100.00
2022-10-18T07:56:16.617Z,100.00
2022-10-18T07:58:45.203Z,100.00
2022-10-18T08:01:12.511Z,100.00
2022-10-18T08:03:39.824Z,100.00
2022-10-18T08:06:09.158Z,100.00
2022-10-18T08:08:37.759Z,100.00
2022-10-18T08:11:10.544Z,100.00
2022-10-18T08:13:37.232Z,100.00
2022-10-18T08:16:06.149Z,100.00
2022-10-18T08:18:33.086Z,100.00
2022-10-18T08:21:00.985Z,100.00
2022-10-18T08:23:27.544Z,100.00
2022-10-18T08:25:54.114Z,100.00
2022-10-18T08:28:20.631Z,100.00
2022-10-18T08:30:47.107Z,100.00
2022-10-18T08:33:13.763Z,100.00
2022-10-18T08:35:40.304Z,100.00
2022-10-18T08:38:16.388Z,100.00
2022-10-18T08:40:44.781Z,100.00
2022-10-18T08:49:12.249Z,100.00
2022-10-18T08:51:45.686Z,100.00
2022-10-18T08:54:27.563Z,100.00
2022-10-18T08:57:00.391Z,100.00
2022-10-18T08:59:31.091Z,100.00
2022-10-18T09:02:22.402Z,100.00
2022-10-18T09:05:10.291Z,100.00
2022-10-18T09:14:24.209Z,96.66
2022-10-18T09:16:53.561Z,98.21
2022-10-18T09:19:30.512Z,100.00
2022-10-18T09:22:09.718Z,98.68
2022-10-18T09:24:41.239Z,97.81
2022-10-18T09:30:40.183Z,90.49
2022-10-18T09:33:31.210Z,83.76
2022-10-18T09:36:00.383Z,84.56
2022-10-18T09:38:32.951Z,85.40
2022-10-18T09:41:07.478Z,87.03
2022-10-18T09:43:50.834Z,82.79
2022-10-18T09:46:19.290Z,86.38
2022-10-18T09:48:50.446Z,85.37
2022-10-18T09:55:18.391Z,83.68
2022-10-18T09:57:51.014Z,79.44
2022-10-18T10:00:23.010Z,82.39
2022-10-18T10:02:49.562Z,87.34
2022-10-18T10:05:16.290Z,88.41
2022-10-18T10:07:45.896Z,84.83
2022-10-18T10:10:24.033Z,81.49
2022-10-18T10:13:15.789Z,85.14
2022-10-18T10:16:02.740Z,80.90
2022-10-18T10:18:37.124Z,74.19
2022-10-18T10:21:06.135Z,74.03
2022-10-18T10:23:37.024Z,78.83
2022-10-18T10:26:06.211Z,79.14
2022-10-18T10:28:37.482Z,77.63
2022-10-18T10:31:18.078Z,73.34
2022-10-18T10:33:47.492Z,70.96
2022-10-18T10:36:20.251Z,71.00
2022-10-18T10:38:46.979Z,73.58
2022-10-18T10:41:21.605Z,77.17
2022-10-18T10:43:48.380Z,76.52
2022-10-18T10:46:19.413Z,79.34
2022-10-18T10:49:08.443Z,73.22
2022-10-18T10:51:43.673Z,72.12
2022-10-18T10:54:16.127Z,74.65
2022-10-18T10:56:59.166Z,78.87
2022-10-18T10:59:27.990Z,70.31
2022-10-18T11:02:20.626Z,71.61
2022-10-18T11:04:52.143Z,69.66
2022-10-18T11:07:29.084Z,69.57
2022-10-18T11:10:04.145Z,75.45
2022-10-18T11:12:34.741Z,73.99
2022-10-18T11:15:39.146Z,70.18
2022-10-18T11:18:27.687Z,67.90
2022-10-18T11:20:58.731Z,67.91
2022-10-18T11:23:29.403Z,69.22
2022-10-18T11:26:12.561Z,67.75
2022-10-18T11:28:42.041Z,68.98
2022-10-18T11:31:33.437Z,69.82
2022-10-18T11:34:13.971Z,67.13
2022-10-18T11:37:22.931Z,68.43
2022-10-18T11:40:15.491Z,67.27
2022-10-18T11:42:50.219Z,67.38
2022-10-18T11:45:31.952Z,63.71
2022-10-18T11:48:13.514Z,63.09
2022-10-18T11:53:52.120Z,71.12
2022-10-18T11:56:39.746Z,73.46
2022-10-18T11:59:27.468Z,70.51
2022-10-18T12:02:31.682Z,70.53
2022-10-18T12:07:55.636Z,67.58
2022-10-18T12:10:31.733Z,68.46
2022-10-18T12:13:16.979Z,66.15
2022-10-18T12:15:44.017Z,64.83
2022-10-18T12:18:15.405Z,60.10
2022-10-18T12:20:43.467Z,62.32
2022-10-18T12:23:17.264Z,62.58
2022-10-18T12:25:47.894Z,61.37
2022-10-18T12:28:51.752Z,64.62
2022-10-18T12:31:33.971Z,62.84
2022-10-18T12:34:04.790Z,63.02
2022-10-18T12:36:46.460Z,63.94
2022-10-18T12:39:43.698Z,63.46
2022-10-18T12:42:28.629Z,59.04
2022-10-18T12:45:02.574Z,61.33
2022-10-18T12:47:30.108Z,61.72
2022-10-18T12:50:22.928Z,62.68
2022-10-18T12:53:02.644Z,57.74
2022-10-18T12:55:32.641Z,58.29
2022-10-18T12:57:59.228Z,58.23
2022-10-18T13:00:31.979Z,56.18
2022-10-18T13:03:13.489Z,57.94
2022-10-18T13:05:54.842Z,54.50
2022-10-18T13:08:28.097Z,58.01
2022-10-18T13:11:12.542Z,58.02
2022-10-18T13:13:48.440Z,62.56
2022-10-18T13:16:20.834Z,60.37
2022-10-18T13:18:50.035Z,63.12
2022-10-18T13:21:44.476Z,64.02
2022-10-18T13:24:24.296Z,64.65
2022-10-18T13:30:01.300Z,67.60
2022-10-18T13:32:46.314Z,69.32
2022-10-18T13:35:43.771Z,66.99
2022-10-18T13:41:25.731Z,64.43
2022-10-18T13:43:52.674Z,62.78
2022-10-18T13:46:22.037Z,65.41
2022-10-18T13:52:26.987Z,64.61
2022-10-18T13:55:18.219Z,62.64
2022-10-18T13:57:47.664Z,64.11
2022-10-18T14:00:23.332Z,64.50
2022-10-18T14:03:02.427Z,61.99
2022-10-18T14:05:50.781Z,57.32
2022-10-18T14:11:05.541Z,57.70
2022-10-18T14:13:48.489Z,57.32
2022-10-18T14:16:27.937Z,59.56
2022-10-18T14:19:01.189Z,61.09
2022-10-18T14:21:32.427Z,57.90
2022-10-18T14:23:58.924Z,57.53
2022-10-18T14:26:28.700Z,58.21
2022-10-18T14:29:06.349Z,56.32
2022-10-18T14:31:33.266Z,56.30
2022-10-18T14:33:59.988Z,57.17
2022-10-18T14:36:29.844Z,58.66
2022-10-18T14:39:06.498Z,57.86
2022-10-18T14:41:38.548Z,56.67
2022-10-18T14:44:14.240Z,57.98
2022-10-18T14:46:46.728Z,58.22
2022-10-18T14:49:14.200Z,54.89
2022-10-18T14:51:43.077Z,56.96
2022-10-18T14:54:23.075Z,59.94
2022-10-18T14:56:51.609Z,61.09
2022-10-18T15:02:25.958Z,62.17
2022-10-18T15:05:07.406Z,60.62
2022-10-18T15:07:34.264Z,62.65
2022-10-18T15:10:03.963Z,65.74
2022-10-18T15:12:36.945Z,65.20
2022-10-18T15:15:20.941Z,66.05
2022-10-18T15:17:48.253Z,68.00
2022-10-18T15:20:22.954Z,68.45
2022-10-18T15:22:49.549Z,66.95
2022-10-18T15:25:32.111Z,66.79
2022-10-18T15:27:59.540Z,67.15
2022-10-18T15:30:36.874Z,70.77
2022-10-18T15:33:09.584Z,76.14
2022-10-18T15:35:37.614Z,84.22
2022-10-18T15:38:20.577Z,95.61
2022-10-18T15:40:48.078Z,100.00
2022-10-18T15:43:23.672Z,100.00
2022-10-18T15:45:52.873Z,100.00
2022-10-18T15:48:21.264Z,100.00
2022-10-18T15:50:53.770Z,100.00
2022-10-18T15:53:20.214Z,100.00
2022-10-18T15:56:00.053Z,100.00
2022-10-18T15:58:46.183Z,100.00
2022-10-18T16:01:34.995Z,100.00
2022-10-18T16:04:05.391Z,100.00
2022-10-18T16:06:35.230Z,100.00
2022-10-18T16:09:01.850Z,100.00
2022-10-18T16:11:29.651Z,100.00
2022-10-18T16:13:58.029Z,100.00
2022-10-18T16:16:28.710Z,100.00
2022-10-18T16:18:55.698Z,100.00
2022-10-18T16:21:30.012Z,100.00
2022-10-18T16:23:56.848Z,100.00
2022-10-18T16:26:23.915Z,100.00
2022-10-18T16:28:51.374Z,100.00
2022-10-18T16:31:20.877Z,100.00
2022-10-18T16:33:50.245Z,100.00
2022-10-18T16:36:19.335Z,100.00
2022-10-18T16:38:46.819Z,100.00
2022-10-18T16:41:13.427Z,100.00
2022-10-18T16:43:40.005Z,100.00
2022-10-18T16:46:07.625Z,100.00
2022-10-18T16:48:34.105Z,100.00
2022-10-18T16:51:01.118Z,100.00
2022-10-18T16:53:28.086Z,100.00
2022-10-18T16:56:05.307Z,100.00
2022-10-18T16:58:32.874Z,100.00
2022-10-18T17:01:01.014Z,100.00
2022-10-18T17:03:29.563Z,100.00
2022-10-18T17:05:56.781Z,100.00
2022-10-18T17:08:25.745Z,100.00
2022-10-18T17:10:55.269Z,100.00
2022-10-18T17:13:22.300Z,100.00
2022-10-18T17:15:49.404Z,100.00
2022-10-18T17:18:21.932Z,100.00
2022-10-18T17:20:49.658Z,100.00
2022-10-18T17:23:16.348Z,100.00
2022-10-18T17:25:58.961Z,100.00
2022-10-18T17:28:33.742Z,100.00
2022-10-18T17:31:00.343Z,100.00
2022-10-18T17:33:26.876Z,100.00
2022-10-18T17:35:53.466Z,100.00
2022-10-18T17:38:19.918Z,100.00
2022-10-18T17:40:46.497Z,100.00
2022-10-18T17:43:13.959Z,100.00
2022-10-18T17:45:51.139Z,100.00
2022-10-18T17:48:17.681Z,100.00
2022-10-18T17:50:44.486Z,100.00
2022-10-18T17:53:12.912Z,100.00
2022-10-18T17:55:39.711Z,100.00
2022-10-18T17:58:06.383Z,100.00
2022-10-18T18:00:32.860Z,100.00
2022-10-18T18:03:00.231Z,100.00
2022-10-18T18:05:31.136Z,100.00
2022-10-18T18:08:02.762Z,100.00
2022-10-18T18:10:33.004Z,100.00
2022-10-18T18:12:59.594Z,100.00
2022-10-18T18:15:26.133Z,100.00
2022-10-18T18:17:57.187Z,100.00
2022-10-18T18:20:24.595Z,100.00
2022-10-18T18:22:51.810Z,100.00
2022-10-18T18:25:18.475Z,100.00
2022-10-18T18:27:45.092Z,100.00
2022-10-18T18:30:12.150Z,100.00
2022-10-18T18:32:38.721Z,100.00
2022-10-18T18:35:05.618Z,100.00
2022-10-18T18:37:32.143Z,100.00
2022-10-18T18:39:58.632Z,100.00
2022-10-18T18:42:25.279Z,100.00
2022-10-18T18:44:51.813Z,100.00
2022-10-18T18:47:21.555Z,100.00
2022-10-18T18:49:48.465Z,100.00
2022-10-18T18:52:14.945Z,100.00
2022-10-18T18:54:41.409Z,100.00
2022-10-18T18:57:07.930Z,100.00
2022-10-18T18:59:34.448Z,100.00
2022-10-18T19:02:01.182Z,100.00
2022-10-18T19:04:29.037Z,100.00
2022-10-18T19:06:55.554Z,100.00
2022-10-18T19:09:22.871Z,100.00
2022-10-18T19:11:52.463Z,100.00
2022-10-18T19:14:19.682Z,100.00
2022-10-18T19:16:51.013Z,100.00
2022-10-18T19:19:22.656Z,100.00
2022-10-18T19:21:54.022Z,100.00
2022-10-18T19:24:21.862Z,100.00
2022-10-18T19:26:54.101Z,100.00
2022-10-18T19:29:26.120Z,100.00
2022-10-18T19:31:54.388Z,100.00
2022-10-18T19:34:22.304Z,100.00
2022-10-18T19:36:49.747Z,100.00
2022-10-18T19:39:24.587Z,100.00
2022-10-18T19:41:55.141Z,100.00
2022-10-18T19:44:22.675Z,100.00
2022-10-18T19:46:49.508Z,100.00
2022-10-18T19:49:16.882Z,100.00
2022-10-18T19:51:44.074Z,100.00
2022-10-18T19:54:14.503Z,100.00
2022-10-18T19:56:41.750Z,100.00
2022-10-18T19:59:08.714Z,100.00
2022-10-18T20:01:35.343Z,100.00
2022-10-18T20:04:03.788Z,100.00
2022-10-18T20:06:31.712Z,100.00
2022-10-18T20:08:58.529Z,100.00
2022-10-18T20:11:27.607Z,100.00
2022-10-18T20:13:54.423Z,100.00
2022-10-18T20:16:28.594Z,100.00
2022-10-18T20:19:00.303Z,100.00
2022-10-18T20:21:28.540Z,100.00
2022-10-18T20:23:55.388Z,100.00
2022-10-18T20:26:21.893Z,100.00
2022-10-18T20:28:56.213Z,100.00
2022-10-18T20:31:30.826Z,100.00
2022-10-18T20:33:59.814Z,100.00
2022-10-18T20:36:27.621Z,100.00
2022-10-18T20:38:54.946Z,100.00
2022-10-18T20:41:36.540Z,100.00
2022-10-18T20:44:05.267Z,100.00
2022-10-18T20:46:33.601Z,100.00
2022-10-18T20:49:00.593Z,100.00
2022-10-18T20:51:27.087Z,100.00
2022-10-18T20:53:53.850Z,100.00
2022-10-18T20:56:22.238Z,100.00
2022-10-18T20:58:54.593Z,100.00
2022-10-18T21:01:27.284Z,100.00
2022-10-18T21:03:55.571Z,100.00
2022-10-18T21:06:32.195Z,100.00
2022-10-18T21:09:03.811Z,100.00
2022-10-18T21:11:31.716Z,100.00
2022-10-18T21:14:02.526Z,100.00
2022-10-18T21:16:33.708Z,100.00
2022-10-18T21:19:08.702Z,100.00
2022-10-18T21:21:35.588Z,100.00
2022-10-18T21:24:05.466Z,100.00
2022-10-18T21:26:34.642Z,100.00
2022-10-18T21:29:01.378Z,100.00
2022-10-18T21:31:30.392Z,100.00
2022-10-18T21:33:59.233Z,100.00
2022-10-18T21:36:27.433Z,100.00
2022-10-18T21:38:53.921Z,100.00
2022-10-18T21:41:21.397Z,100.00
2022-10-18T21:43:50.571Z,100.00
2022-10-18T21:46:18.626Z,100.00
2022-10-18T21:48:47.207Z,100.00
2022-10-18T21:51:15.662Z,100.00
2022-10-18T21:53:43.606Z,100.00
2022-10-18T21:56:15.313Z,100.00
2022-10-18T21:58:42.474Z,100.00
2022-10-18T22:01:14.548Z,100.00
2022-10-18T22:03:41.528Z,100.00
2022-10-18T22:06:14.212Z,100.00
2022-10-18T22:08:44.889Z,100.00
2022-10-18T22:11:12.633Z,100.00
2022-10-18T22:13:39.945Z,100.00
2022-10-18T22:16:07.345Z,100.00
2022-10-18T22:18:34.615Z,100.00
2022-10-18T22:21:03.913Z,100.00
2022-10-18T22:23:35.297Z,100.00
2022-10-18T22:26:07.844Z,100.00
2022-10-18T22:28:35.268Z,100.00
2022-10-18T22:31:02.102Z,100.00
2022-10-18T22:33:28.635Z,100.00
2022-10-18T22:35:55.429Z,100.00
2022-10-18T22:38:22.082Z,100.00
2022-10-18T22:40:48.615Z,100.00
2022-10-18T22:43:15.123Z,100.00
2022-10-18T22:45:41.867Z,100.00
2022-10-18T22:48:08.397Z,100.00
2022-10-18T22:50:34.963Z,100.00
2022-10-18T22:53:01.423Z,100.00
2022-10-18T22:55:27.892Z,100.00
2022-10-18T22:57:55.610Z,100.00
2022-10-18T23:00:22.149Z,100.00
2022-10-18T23:02:49.779Z,100.00
2022-10-18T23:05:16.492Z,100.00
2022-10-18T23:07:47.693Z,100.00
2022-10-18T23:10:14.267Z,100.00
2022-10-18T23:12:40.743Z,100.00
2022-10-18T23:15:07.814Z,100.00
2022-10-18T23:17:34.571Z,100.00
2022-10-18T23:20:01.254Z,100.00
2022-10-18T23:22:27.718Z,100.00
2022-10-18T23:24:54.241Z,100.00
2022-10-18T23:27:20.727Z,100.00
2022-10-18T23:29:47.241Z,100.00
2022-10-18T23:32:13.717Z,100.00
2022-10-18T23:34:40.222Z,100.00
2022-10-18T23:37:06.725Z,100.00
2022-10-18T23:39:33.188Z,100.00
2022-10-18T23:41:59.644Z,100.00
2022-10-18T23:44:26.138Z,100.00
2022-10-18T23:46:52.602Z,100.00
2022-10-18T23:49:19.097Z,100.00
2022-10-18T23:51:45.578Z,100.00
2022-10-18T23:54:12.041Z,100.00
2022-10-18T23:56:38.501Z,100.00
2022-10-18T23:59:05.006Z,100.00
